sensor_id;sensor_type;location;lat;lon;timestamp;pressure;altitude;pressure_sealevel;temperature;humidity
3598;BME280;1813;52.016;8.714;2023-04-25T00:00:42;-16261.94;;;-139.71;74.29
3598;BME280;1813;52.016;8.714;2023-04-25T00:03:17;-16261.94;;;-139.71;74.45
3598;BME280;1813;52.016;8.714;2023-04-25T00:05:51;-16261.94;;;-139.71;74.57
3598;BME280;1813;52.016;8.714;2023-04-25T00:08:28;-16261.94;;;-139.71;74.63
3598;BME280;1813;52.016;8.714;2023-04-25T00:11:02;-16261.94;;;-139.71;74.60
3598;BME280;1813;52.016;8.714;2023-04-25T00:13:36;-16261.94;;;-139.71;74.74
3598;BME280;1813;52.016;8.714;2023-04-25T00:16:15;-16261.94;;;-139.71;74.65
3598;BME280;1813;52.016;8.714;2023-04-25T00:18:49;-16261.94;;;-139.71;74.69
3598;BME280;1813;52.016;8.714;2023-04-25T00:21:24;-16261.94;;;-139.71;74.90
3598;BME280;1813;52.016;8.714;2023-04-25T00:23:59;-16261.94;;;-139.71;74.80
3598;BME280;1813;52.016;8.714;2023-04-25T00:26:36;-16261.94;;;-139.71;74.99
3598;BME280;1813;52.016;8.714;2023-04-25T00:29:10;-16261.94;;;-139.71;74.97
3598;BME280;1813;52.016;8.714;2023-04-25T00:31:47;-16261.94;;;-139.71;75.23
3598;BME280;1813;52.016;8.714;2023-04-25T00:34:21;-16261.94;;;-139.71;75.38
3598;BME280;1813;52.016;8.714;2023-04-25T00:36:55;-16261.94;;;-139.71;75.65
3598;BME280;1813;52.016;8.714;2023-04-25T00:39:32;-16261.94;;;-139.71;75.79
3598;BME280;1813;52.016;8.714;2023-04-25T00:42:06;-16261.94;;;-139.71;75.93
3598;BME280;1813;52.016;8.714;2023-04-25T00:44:42;-16261.94;;;-139.71;76.30
3598;BME280;1813;52.016;8.714;2023-04-25T00:47:20;-16261.94;;;-139.71;76.72
3598;BME280;1813;52.016;8.714;2023-04-25T00:49:54;-16261.94;;;-139.71;77.05
3598;BME280;1813;52.016;8.714;2023-04-25T00:52:28;-16261.94;;;-139.71;77.37
3598;BME280;1813;52.016;8.714;2023-04-25T00:55:03;-16261.94;;;-139.71;77.79
3598;BME280;1813;52.016;8.714;2023-04-25T00:57:38;-16261.94;;;-139.71;78.11
3598;BME280;1813;52.016;8.714;2023-04-25T01:00:13;-16261.94;;;-139.71;78.33
3598;BME280;1813;52.016;8.714;2023-04-25T01:02:51;-16261.94;;;-139.71;78.64
3598;BME280;1813;52.016;8.714;2023-04-25T01:05:26;-16261.94;;;-139.71;78.85
3598;BME280;1813;52.016;8.714;2023-04-25T01:08:00;-16261.94;;;-139.71;79.06
3598;BME280;1813;52.016;8.714;2023-04-25T01:10:35;-16261.94;;;-139.71;79.26
3598;BME280;1813;52.016;8.714;2023-04-25T01:13:09;-16261.94;;;-139.71;79.40
3598;BME280;1813;52.016;8.714;2023-04-25T01:15:43;-16261.94;;;-139.71;79.64
3598;BME280;1813;52.016;8.714;2023-04-25T01:18:21;-16261.94;;;-139.71;79.78
3598;BME280;1813;52.016;8.714;2023-04-25T01:20:56;-16261.94;;;-139.71;80.11
3598;BME280;1813;52.016;8.714;2023-04-25T01:23:35;-16261.94;;;-139.71;80.23
3598;BME280;1813;52.016;8.714;2023-04-25T01:26:10;-16261.94;;;-139.71;80.50
3598;BME280;1813;52.016;8.714;2023-04-25T01:28:45;-16261.94;;;-139.71;80.70
3598;BME280;1813;52.016;8.714;2023-04-25T01:31:19;-16261.94;;;-139.71;80.80
3598;BME280;1813;52.016;8.714;2023-04-25T01:33:54;-16261.94;;;-139.71;81.01
3598;BME280;1813;52.016;8.714;2023-04-25T01:36:28;-16261.94;;;-139.71;81.06
3598;BME280;1813;52.016;8.714;2023-04-25T01:39:05;-16261.94;;;-139.71;81.27
3598;BME280;1813;52.016;8.714;2023-04-25T01:41:39;-16261.94;;;-139.71;81.38
3598;BME280;1813;52.016;8.714;2023-04-25T01:44:14;-16261.94;;;-139.71;81.65
3598;BME280;1813;52.016;8.714;2023-04-25T01:46:49;-16261.94;;;-139.71;81.80
3598;BME280;1813;52.016;8.714;2023-04-25T01:49:26;-16261.94;;;-139.71;82.02
3598;BME280;1813;52.016;8.714;2023-04-25T01:52:00;-16261.94;;;-139.71;82.22
3598;BME280;1813;52.016;8.714;2023-04-25T01:54:37;-16261.94;;;-139.71;82.31
3598;BME280;1813;52.016;8.714;2023-04-25T01:57:15;-16261.94;;;-139.71;82.48
3598;BME280;1813;52.016;8.714;2023-04-25T01:59:50;-16261.94;;;-139.71;82.64
3598;BME280;1813;52.016;8.714;2023-04-25T02:02:43;-16261.94;;;-139.71;82.86
3598;BME280;1813;52.016;8.714;2023-04-25T02:05:38;-16261.94;;;-139.71;83.16
3598;BME280;1813;52.016;8.714;2023-04-25T02:08:17;-16261.94;;;-139.71;83.28
3598;BME280;1813;52.016;8.714;2023-04-25T02:10:55;-16261.94;;;-139.71;83.53
3598;BME280;1813;52.016;8.714;2023-04-25T02:13:34;-16261.94;;;-139.71;83.84
3598;BME280;1813;52.016;8.714;2023-04-25T02:16:25;-16261.94;;;-139.71;84.08
3598;BME280;1813;52.016;8.714;2023-04-25T02:19:01;-16261.94;;;-139.71;84.22
3598;BME280;1813;52.016;8.714;2023-04-25T02:21:54;-16261.94;;;-139.71;84.43
3598;BME280;1813;52.016;8.714;2023-04-25T02:24:29;-16261.94;;;-139.71;84.67
3598;BME280;1813;52.016;8.714;2023-04-25T02:27:08;-16261.94;;;-139.71;84.81
3598;BME280;1813;52.016;8.714;2023-04-25T02:29:42;-16261.94;;;-139.71;85.09
3598;BME280;1813;52.016;8.714;2023-04-25T02:32:16;-16261.94;;;-139.71;85.37
3598;BME280;1813;52.016;8.714;2023-04-25T02:34:51;-16261.94;;;-139.71;85.47
3598;BME280;1813;52.016;8.714;2023-04-25T02:37:26;-16261.94;;;-139.71;85.69
3598;BME280;1813;52.016;8.714;2023-04-25T02:40:00;-16261.94;;;-139.71;85.89
3598;BME280;1813;52.016;8.714;2023-04-25T02:42:38;-16261.94;;;-139.71;85.93
3598;BME280;1813;52.016;8.714;2023-04-25T02:45:13;-16261.94;;;-139.71;85.94
3598;BME280;1813;52.016;8.714;2023-04-25T02:47:47;-16261.94;;;-139.71;86.05
3598;BME280;1813;52.016;8.714;2023-04-25T02:50:23;-16261.94;;;-139.71;85.92
3598;BME280;1813;52.016;8.714;2023-04-25T02:52:57;-16261.94;;;-139.71;85.73
3598;BME280;1813;52.016;8.714;2023-04-25T02:55:39;-16261.94;;;-139.71;85.81
3598;BME280;1813;52.016;8.714;2023-04-25T02:58:16;-16261.94;;;-139.71;85.81
3598;BME280;1813;52.016;8.714;2023-04-25T03:00:54;-16261.94;;;-139.71;85.77
3598;BME280;1813;52.016;8.714;2023-04-25T03:03:28;-16261.94;;;-139.71;85.77
3598;BME280;1813;52.016;8.714;2023-04-25T03:06:03;-16261.94;;;-139.71;85.60
3598;BME280;1813;52.016;8.714;2023-04-25T03:08:38;-16261.94;;;-139.71;85.41
3598;BME280;1813;52.016;8.714;2023-04-25T03:11:12;-16261.94;;;-139.71;85.07
3598;BME280;1813;52.016;8.714;2023-04-25T03:13:49;-16261.94;;;-139.71;84.94
3598;BME280;1813;52.016;8.714;2023-04-25T03:16:25;-16261.94;;;-139.71;84.70
3598;BME280;1813;52.016;8.714;2023-04-25T03:18:59;-16261.94;;;-139.71;84.51
3598;BME280;1813;52.016;8.714;2023-04-25T03:21:35;-16261.94;;;-139.71;83.96
3598;BME280;1813;52.016;8.714;2023-04-25T03:24:09;-16261.94;;;-139.71;83.76
3598;BME280;1813;52.016;8.714;2023-04-25T03:26:44;-16261.94;;;-139.71;83.37
3598;BME280;1813;52.016;8.714;2023-04-25T03:29:21;-16261.94;;;-139.71;83.39
3598;BME280;1813;52.016;8.714;2023-04-25T03:31:57;-16261.94;;;-139.71;83.17
3598;BME280;1813;52.016;8.714;2023-04-25T03:34:32;-16261.94;;;-139.71;82.83
3598;BME280;1813;52.016;8.714;2023-04-25T03:37:06;-16261.94;;;-139.71;82.50
3598;BME280;1813;52.016;8.714;2023-04-25T03:39:43;-16261.94;;;-139.71;82.37
3598;BME280;1813;52.016;8.714;2023-04-25T03:42:17;-16261.94;;;-139.71;81.91
3598;BME280;1813;52.016;8.714;2023-04-25T03:44:56;-16261.94;;;-139.71;81.85
3598;BME280;1813;52.016;8.714;2023-04-25T03:47:30;-16261.94;;;-139.71;81.79
3598;BME280;1813;52.016;8.714;2023-04-25T03:50:06;-16261.94;;;-139.71;81.47
3598;BME280;1813;52.016;8.714;2023-04-25T03:52:42;-16261.94;;;-139.71;81.27
3598;BME280;1813;52.016;8.714;2023-04-25T03:55:16;-16261.94;;;-139.71;81.01
3598;BME280;1813;52.016;8.714;2023-04-25T03:57:51;-16261.94;;;-139.71;80.82
3598;BME280;1813;52.016;8.714;2023-04-25T04:00:30;-16261.94;;;-139.71;80.65
3598;BME280;1813;52.016;8.714;2023-04-25T04:03:05;-16261.94;;;-139.71;80.30
3598;BME280;1813;52.016;8.714;2023-04-25T04:05:39;-16261.94;;;-139.71;80.07
3598;BME280;1813;52.016;8.714;2023-04-25T04:08:13;-16261.94;;;-139.71;80.03
3598;BME280;1813;52.016;8.714;2023-04-25T04:10:47;-16261.94;;;-139.71;79.92
3598;BME280;1813;52.016;8.714;2023-04-25T04:13:22;-16261.94;;;-139.71;79.82
3598;BME280;1813;52.016;8.714;2023-04-25T04:16:00;-16261.94;;;-139.71;79.63
3598;BME280;1813;52.016;8.714;2023-04-25T04:18:35;-16261.94;;;-139.71;79.58
3598;BME280;1813;52.016;8.714;2023-04-25T04:21:09;-16261.94;;;-139.71;79.31
3598;BME280;1813;52.016;8.714;2023-04-25T04:23:45;-16261.94;;;-139.71;79.19
3598;BME280;1813;52.016;8.714;2023-04-25T04:26:20;-16261.94;;;-139.71;79.05
3598;BME280;1813;52.016;8.714;2023-04-25T04:29:20;-16261.94;;;-139.71;78.71
3598;BME280;1813;52.016;8.714;2023-04-25T04:32:16;-16261.94;;;-139.71;78.75
3598;BME280;1813;52.016;8.714;2023-04-25T04:34:51;-16261.94;;;-139.71;78.89
3598;BME280;1813;52.016;8.714;2023-04-25T04:37:27;-16261.94;;;-139.71;78.70
3598;BME280;1813;52.016;8.714;2023-04-25T04:40:04;-16261.94;;;-139.71;78.56
3598;BME280;1813;52.016;8.714;2023-04-25T04:43:09;-16261.94;;;-139.71;78.63
3598;BME280;1813;52.016;8.714;2023-04-25T04:46:02;-16261.94;;;-139.71;78.80
3598;BME280;1813;52.016;8.714;2023-04-25T04:48:59;-16261.94;;;-139.71;78.76
3598;BME280;1813;52.016;8.714;2023-04-25T04:51:57;-16261.94;;;-139.71;78.88
3598;BME280;1813;52.016;8.714;2023-04-25T04:54:53;-16261.94;;;-139.71;78.63
3598;BME280;1813;52.016;8.714;2023-04-25T04:57:45;-16261.94;;;-139.71;78.02
3598;BME280;1813;52.016;8.714;2023-04-25T05:00:40;-16261.94;;;-139.71;77.69
3598;BME280;1813;52.016;8.714;2023-04-25T05:03:34;-16261.94;;;-139.71;77.46
3598;BME280;1813;52.016;8.714;2023-04-25T05:06:33;-16261.94;;;-139.71;77.28
3598;BME280;1813;52.016;8.714;2023-04-25T05:09:33;-16261.94;;;-139.71;77.24
3598;BME280;1813;52.016;8.714;2023-04-25T05:12:28;-16261.94;;;-139.71;77.27
3598;BME280;1813;52.016;8.714;2023-04-25T05:15:21;-16261.94;;;-139.71;77.14
3598;BME280;1813;52.016;8.714;2023-04-25T05:18:18;-16261.94;;;-139.71;76.94
3598;BME280;1813;52.016;8.714;2023-04-25T05:21:11;-16261.94;;;-139.71;76.94
3598;BME280;1813;52.016;8.714;2023-04-25T05:24:14;-16261.94;;;-139.71;76.73
3598;BME280;1813;52.016;8.714;2023-04-25T05:27:07;-16261.94;;;-139.71;76.63
3598;BME280;1813;52.016;8.714;2023-04-25T05:29:49;-16261.94;;;-139.71;76.54
3598;BME280;1813;52.016;8.714;2023-04-25T05:32:52;-16261.94;;;-139.71;76.37
3598;BME280;1813;52.016;8.714;2023-04-25T05:35:27;-16261.94;;;-139.71;76.10
3598;BME280;1813;52.016;8.714;2023-04-25T05:38:01;-16261.94;;;-139.71;76.21
3598;BME280;1813;52.016;8.714;2023-04-25T05:40:59;-16261.94;;;-139.71;76.18
3598;BME280;1813;52.016;8.714;2023-04-25T05:43:45;-16261.94;;;-139.71;75.91
3598;BME280;1813;52.016;8.714;2023-04-25T05:46:35;-16261.94;;;-139.71;75.78
3598;BME280;1813;52.016;8.714;2023-04-25T05:49:18;-16261.94;;;-139.71;75.68
3598;BME280;1813;52.016;8.714;2023-04-25T05:52:05;-16261.94;;;-139.71;75.49
3598;BME280;1813;52.016;8.714;2023-04-25T05:54:56;-16261.94;;;-139.71;75.48
3598;BME280;1813;52.016;8.714;2023-04-25T05:57:33;-16261.94;;;-139.71;75.77
3598;BME280;1813;52.016;8.714;2023-04-25T06:00:10;-16261.94;;;-139.71;75.43
3598;BME280;1813;52.016;8.714;2023-04-25T06:02:46;-16261.94;;;-139.71;74.94
3598;BME280;1813;52.016;8.714;2023-04-25T06:05:21;-16261.94;;;-139.71;74.68
3598;BME280;1813;52.016;8.714;2023-04-25T06:07:55;-16261.94;;;-139.71;73.93
3598;BME280;1813;52.016;8.714;2023-04-25T06:10:29;-16261.94;;;-139.71;73.16
3598;BME280;1813;52.016;8.714;2023-04-25T06:13:06;-16261.94;;;-139.71;72.49
3598;BME280;1813;52.016;8.714;2023-04-25T06:15:41;-16261.94;;;-139.71;72.60
3598;BME280;1813;52.016;8.714;2023-04-25T06:18:16;-16261.94;;;-139.71;72.19
3598;BME280;1813;52.016;8.714;2023-04-25T06:20:51;-16261.94;;;-139.71;70.85
3598;BME280;1813;52.016;8.714;2023-04-25T06:23:25;-16261.94;;;-139.71;70.17
3598;BME280;1813;52.016;8.714;2023-04-25T06:26:08;-16261.94;;;-139.71;69.98
3598;BME280;1813;52.016;8.714;2023-04-25T06:28:52;-16261.94;;;-139.71;69.77
3598;BME280;1813;52.016;8.714;2023-04-25T06:31:26;-16261.94;;;-139.71;69.67
3598;BME280;1813;52.016;8.714;2023-04-25T06:34:04;-16261.94;;;-139.71;69.75
3598;BME280;1813;52.016;8.714;2023-04-25T06:36:42;-16261.94;;;-139.71;69.25
3598;BME280;1813;52.016;8.714;2023-04-25T06:39:19;-16261.94;;;-139.71;69.12
3598;BME280;1813;52.016;8.714;2023-04-25T06:41:54;-16261.94;;;-139.71;68.53
3598;BME280;1813;52.016;8.714;2023-04-25T06:44:49;-16261.94;;;-139.71;67.80
3598;BME280;1813;52.016;8.714;2023-04-25T06:47:24;-16261.94;;;-139.71;66.46
3598;BME280;1813;52.016;8.714;2023-04-25T06:49:58;-16261.94;;;-139.71;66.35
3598;BME280;1813;52.016;8.714;2023-04-25T06:52:36;-16261.94;;;-139.71;66.00
3598;BME280;1813;52.016;8.714;2023-04-25T06:55:10;-16261.94;;;-139.71;65.53
3598;BME280;1813;52.016;8.714;2023-04-25T06:58:04;-16261.94;;;-139.71;65.78
3598;BME280;1813;52.016;8.714;2023-04-25T07:01:19;-16261.94;;;-139.71;65.50
3598;BME280;1813;52.016;8.714;2023-04-25T07:03:53;-16261.94;;;-139.71;66.01
3598;BME280;1813;52.016;8.714;2023-04-25T07:06:29;-16261.94;;;-139.71;65.71
3598;BME280;1813;52.016;8.714;2023-04-25T07:09:03;-16261.94;;;-139.71;65.82
3598;BME280;1813;52.016;8.714;2023-04-25T07:11:39;-16261.94;;;-139.71;65.75
3598;BME280;1813;52.016;8.714;2023-04-25T07:14:13;-16261.94;;;-139.71;65.63
3598;BME280;1813;52.016;8.714;2023-04-25T07:16:50;-16261.94;;;-139.71;64.83
3598;BME280;1813;52.016;8.714;2023-04-25T07:19:26;-16261.94;;;-139.71;63.86
3598;BME280;1813;52.016;8.714;2023-04-25T07:22:04;-16261.94;;;-139.71;63.79
3598;BME280;1813;52.016;8.714;2023-04-25T07:24:40;-16261.94;;;-139.71;64.32
3598;BME280;1813;52.016;8.714;2023-04-25T07:27:19;-16261.94;;;-139.71;63.26
3598;BME280;1813;52.016;8.714;2023-04-25T07:30:00;-16261.94;;;-139.71;63.62
3598;BME280;1813;52.016;8.714;2023-04-25T07:32:38;-16261.94;;;-139.71;63.61
3598;BME280;1813;52.016;8.714;2023-04-25T07:35:12;-16261.94;;;-139.71;62.67
3598;BME280;1813;52.016;8.714;2023-04-25T07:37:48;-16261.94;;;-139.71;61.50
3598;BME280;1813;52.016;8.714;2023-04-25T07:40:24;-16261.94;;;-139.71;61.31
3598;BME280;1813;52.016;8.714;2023-04-25T07:43:03;-16261.94;;;-139.71;62.10
3598;BME280;1813;52.016;8.714;2023-04-25T07:45:48;-16261.94;;;-139.71;61.45
3598;BME280;1813;52.016;8.714;2023-04-25T07:48:26;-16261.94;;;-139.71;61.17
3598;BME280;1813;52.016;8.714;2023-04-25T07:51:01;-16261.94;;;-139.71;60.91
3598;BME280;1813;52.016;8.714;2023-04-25T07:53:37;-16261.94;;;-139.71;60.16
3598;BME280;1813;52.016;8.714;2023-04-25T07:56:16;-16261.94;;;-139.71;59.66
3598;BME280;1813;52.016;8.714;2023-04-25T07:58:53;-16261.94;;;-139.71;58.90
3598;BME280;1813;52.016;8.714;2023-04-25T08:01:28;-16261.94;;;-139.71;57.54
3598;BME280;1813;52.016;8.714;2023-04-25T08:04:08;-16261.94;;;-139.71;56.37
3598;BME280;1813;52.016;8.714;2023-04-25T08:07:09;-16261.94;;;-139.71;56.48
3598;BME280;1813;52.016;8.714;2023-04-25T08:09:52;-16261.94;;;-139.71;56.65
3598;BME280;1813;52.016;8.714;2023-04-25T08:12:31;-16261.94;;;-139.71;55.82
3598;BME280;1813;52.016;8.714;2023-04-25T08:15:07;-16261.94;;;-139.71;55.70
3598;BME280;1813;52.016;8.714;2023-04-25T08:17:44;-16261.94;;;-139.71;54.70
3598;BME280;1813;52.016;8.714;2023-04-25T08:20:20;-16261.94;;;-139.71;54.61
3598;BME280;1813;52.016;8.714;2023-04-25T08:22:58;-16261.94;;;-139.71;55.43
3598;BME280;1813;52.016;8.714;2023-04-25T08:25:45;-16261.94;;;-139.71;53.29
3598;BME280;1813;52.016;8.714;2023-04-25T08:28:25;-16261.94;;;-139.71;52.68
3598;BME280;1813;52.016;8.714;2023-04-25T08:31:02;-16261.94;;;-139.71;52.09
3598;BME280;1813;52.016;8.714;2023-04-25T08:33:46;-16261.94;;;-139.71;51.21
3598;BME280;1813;52.016;8.714;2023-04-25T08:36:54;-16261.94;;;-139.71;49.23
3598;BME280;1813;52.016;8.714;2023-04-25T08:40:05;-16261.94;;;-139.71;49.18
3598;BME280;1813;52.016;8.714;2023-04-25T08:43:03;-16261.94;;;-139.71;47.37
3598;BME280;1813;52.016;8.714;2023-04-25T08:45:42;-16261.94;;;-139.71;46.98
3598;BME280;1813;52.016;8.714;2023-04-25T08:48:27;-16261.94;;;-139.71;46.08
3598;BME280;1813;52.016;8.714;2023-04-25T08:51:03;-16261.94;;;-139.71;46.00
3598;BME280;1813;52.016;8.714;2023-04-25T08:53:43;-16261.94;;;-139.71;46.71
3598;BME280;1813;52.016;8.714;2023-04-25T08:56:19;-16261.94;;;-139.71;47.35
3598;BME280;1813;52.016;8.714;2023-04-25T08:58:54;-16261.94;;;-139.71;46.82
3598;BME280;1813;52.016;8.714;2023-04-25T09:01:30;-16261.94;;;-139.71;47.27
3598;BME280;1813;52.016;8.714;2023-04-25T09:04:05;-16261.94;;;-139.71;46.72
3598;BME280;1813;52.016;8.714;2023-04-25T09:06:39;-16261.94;;;-139.71;46.27
3598;BME280;1813;52.016;8.714;2023-04-25T09:09:16;-16261.94;;;-139.71;47.23
3598;BME280;1813;52.016;8.714;2023-04-25T09:11:53;-16261.94;;;-139.71;47.48
3598;BME280;1813;52.016;8.714;2023-04-25T09:14:31;-16261.94;;;-139.71;45.95
3598;BME280;1813;52.016;8.714;2023-04-25T09:17:29;-16261.94;;;-139.71;44.56
3598;BME280;1813;52.016;8.714;2023-04-25T09:20:09;-16261.94;;;-139.71;44.38
3598;BME280;1813;52.016;8.714;2023-04-25T09:22:45;-16261.94;;;-139.71;44.31
3598;BME280;1813;52.016;8.714;2023-04-25T09:25:24;-16261.94;;;-139.71;43.61
3598;BME280;1813;52.016;8.714;2023-04-25T09:28:03;-16261.94;;;-139.71;44.97
3598;BME280;1813;52.016;8.714;2023-04-25T09:30:38;-16261.94;;;-139.71;45.41
3598;BME280;1813;52.016;8.714;2023-04-25T09:33:27;-16261.94;;;-139.71;43.26
3598;BME280;1813;52.016;8.714;2023-04-25T09:36:04;-16261.94;;;-139.71;44.16
3598;BME280;1813;52.016;8.714;2023-04-25T09:39:12;-16261.94;;;-139.71;45.26
3598;BME280;1813;52.016;8.714;2023-04-25T09:42:03;-16261.94;;;-139.71;43.41
3598;BME280;1813;52.016;8.714;2023-04-25T09:44:42;-16261.94;;;-139.71;42.03
3598;BME280;1813;52.016;8.714;2023-04-25T09:47:17;-16261.94;;;-139.71;43.69
3598;BME280;1813;52.016;8.714;2023-04-25T09:49:54;-16261.94;;;-139.71;42.59
3598;BME280;1813;52.016;8.714;2023-04-25T09:52:29;-16261.94;;;-139.71;41.95
3598;BME280;1813;52.016;8.714;2023-04-25T09:55:17;-16261.94;;;-139.71;41.49
3598;BME280;1813;52.016;8.714;2023-04-25T09:57:57;-16261.94;;;-139.71;40.71
3598;BME280;1813;52.016;8.714;2023-04-25T10:00:35;-16261.94;;;-139.71;41.71
3598;BME280;1813;52.016;8.714;2023-04-25T10:03:24;-16261.94;;;-139.71;42.33
3598;BME280;1813;52.016;8.714;2023-04-25T10:06:19;-16261.94;;;-139.71;42.91
3598;BME280;1813;52.016;8.714;2023-04-25T10:08:55;-16261.94;;;-139.71;42.90
3598;BME280;1813;52.016;8.714;2023-04-25T10:11:30;-16261.94;;;-139.71;43.41
3598;BME280;1813;52.016;8.714;2023-04-25T10:14:08;-16261.94;;;-139.71;43.52
3598;BME280;1813;52.016;8.714;2023-04-25T10:16:43;-16261.94;;;-139.71;44.37
3598;BME280;1813;52.016;8.714;2023-04-25T10:19:19;-16261.94;;;-139.71;44.45
3598;BME280;1813;52.016;8.714;2023-04-25T10:21:55;-16261.94;;;-139.71;43.66
3598;BME280;1813;52.016;8.714;2023-04-25T10:24:31;-16261.94;;;-139.71;43.54
3598;BME280;1813;52.016;8.714;2023-04-25T10:27:06;-16261.94;;;-139.71;42.99
3598;BME280;1813;52.016;8.714;2023-04-25T10:30:00;-16261.94;;;-139.71;43.21
3598;BME280;1813;52.016;8.714;2023-04-25T10:32:35;-16261.94;;;-139.71;43.42
3598;BME280;1813;52.016;8.714;2023-04-25T10:35:14;-16261.94;;;-139.71;43.28
3598;BME280;1813;52.016;8.714;2023-04-25T10:38:03;-16261.94;;;-139.71;44.03
3598;BME280;1813;52.016;8.714;2023-04-25T10:40:38;-16261.94;;;-139.71;43.93
3598;BME280;1813;52.016;8.714;2023-04-25T10:43:33;-16261.94;;;-139.71;44.57
3598;BME280;1813;52.016;8.714;2023-04-25T10:46:19;-16261.94;;;-139.71;45.88
3598;BME280;1813;52.016;8.714;2023-04-25T10:48:56;-16261.94;;;-139.71;46.16
3598;BME280;1813;52.016;8.714;2023-04-25T10:51:31;-16261.94;;;-139.71;47.02
3598;BME280;1813;52.016;8.714;2023-04-25T10:54:08;-16261.94;;;-139.71;46.72
3598;BME280;1813;52.016;8.714;2023-04-25T10:56:43;-16261.94;;;-139.71;45.98
3598;BME280;1813;52.016;8.714;2023-04-25T10:59:18;-16261.94;;;-139.71;45.79
3598;BME280;1813;52.016;8.714;2023-04-25T11:01:55;-16261.94;;;-139.71;45.83
3598;BME280;1813;52.016;8.714;2023-04-25T11:04:31;-16261.94;;;-139.71;45.33
3598;BME280;1813;52.016;8.714;2023-04-25T11:07:16;-16261.94;;;-139.71;45.55
3598;BME280;1813;52.016;8.714;2023-04-25T11:09:53;-16261.94;;;-139.71;45.52
3598;BME280;1813;52.016;8.714;2023-04-25T11:12:29;-16261.94;;;-139.71;44.31
3598;BME280;1813;52.016;8.714;2023-04-25T11:15:06;-16261.94;;;-139.71;42.70
3598;BME280;1813;52.016;8.714;2023-04-25T11:17:44;-16261.94;;;-139.71;42.72
3598;BME280;1813;52.016;8.714;2023-04-25T11:20:18;-16261.94;;;-139.71;42.40
3598;BME280;1813;52.016;8.714;2023-04-25T11:22:52;-16261.94;;;-139.71;42.90
3598;BME280;1813;52.016;8.714;2023-04-25T11:25:27;-16261.94;;;-139.71;42.68
3598;BME280;1813;52.016;8.714;2023-04-25T11:28:01;-16261.94;;;-139.71;42.67
3598;BME280;1813;52.016;8.714;2023-04-25T11:30:37;-16261.94;;;-139.71;42.91
3598;BME280;1813;52.016;8.714;2023-04-25T11:33:14;-16261.94;;;-139.71;42.90
3598;BME280;1813;52.016;8.714;2023-04-25T11:35:48;-16261.94;;;-139.71;43.38
3598;BME280;1813;52.016;8.714;2023-04-25T11:38:22;-16261.94;;;-139.71;45.94
3598;BME280;1813;52.016;8.714;2023-04-25T11:40:56;-16261.94;;;-139.71;47.20
3598;BME280;1813;52.016;8.714;2023-04-25T11:43:31;-16261.94;;;-139.71;47.85
3598;BME280;1813;52.016;8.714;2023-04-25T11:46:06;-16261.94;;;-139.71;47.73
3598;BME280;1813;52.016;8.714;2023-04-25T11:48:43;-16261.94;;;-139.71;48.39
3598;BME280;1813;52.016;8.714;2023-04-25T11:51:18;-16261.94;;;-139.71;48.52
3598;BME280;1813;52.016;8.714;2023-04-25T11:53:52;-16261.94;;;-139.71;49.84
3598;BME280;1813;52.016;8.714;2023-04-25T11:56:29;-16261.94;;;-139.71;49.57
3598;BME280;1813;52.016;8.714;2023-04-25T11:59:05;-16261.94;;;-139.71;49.63
3598;BME280;1813;52.016;8.714;2023-04-25T12:01:41;-16261.94;;;-139.71;48.95
3598;BME280;1813;52.016;8.714;2023-04-25T12:04:24;-16261.94;;;-139.71;48.43
3598;BME280;1813;52.016;8.714;2023-04-25T12:06:58;-16261.94;;;-139.71;48.44
3598;BME280;1813;52.016;8.714;2023-04-25T12:09:34;-16261.94;;;-139.71;49.21
3598;BME280;1813;52.016;8.714;2023-04-25T12:12:10;-16261.94;;;-139.71;49.07
3598;BME280;1813;52.016;8.714;2023-04-25T12:14:46;-16261.94;;;-139.71;48.28
3598;BME280;1813;52.016;8.714;2023-04-25T12:17:22;-16261.94;;;-139.71;48.52
3598;BME280;1813;52.016;8.714;2023-04-25T12:19:59;-16261.94;;;-139.71;48.63
3598;BME280;1813;52.016;8.714;2023-04-25T12:22:34;-16261.94;;;-139.71;50.37
3598;BME280;1813;52.016;8.714;2023-04-25T12:25:09;-16261.94;;;-139.71;50.58
3598;BME280;1813;52.016;8.714;2023-04-25T12:27:43;-16261.94;;;-139.71;50.01
3598;BME280;1813;52.016;8.714;2023-04-25T12:30:17;-16261.94;;;-139.71;50.20
3598;BME280;1813;52.016;8.714;2023-04-25T12:32:52;-16261.94;;;-139.71;52.35
3598;BME280;1813;52.016;8.714;2023-04-25T12:35:29;-16261.94;;;-139.71;52.27
3598;BME280;1813;52.016;8.714;2023-04-25T12:38:04;-16261.94;;;-139.71;48.86
3598;BME280;1813;52.016;8.714;2023-04-25T12:40:38;-16261.94;;;-139.71;48.48
3598;BME280;1813;52.016;8.714;2023-04-25T12:43:12;-16261.94;;;-139.71;47.17
3598;BME280;1813;52.016;8.714;2023-04-25T12:45:47;-16261.94;;;-139.71;47.01
3598;BME280;1813;52.016;8.714;2023-04-25T12:48:22;-16261.94;;;-139.71;44.66
3598;BME280;1813;52.016;8.714;2023-04-25T12:50:59;-16261.94;;;-139.71;44.36
3598;BME280;1813;52.016;8.714;2023-04-25T12:53:34;-16261.94;;;-139.71;45.69
3598;BME280;1813;52.016;8.714;2023-04-25T12:56:11;-16261.94;;;-139.71;44.16
3598;BME280;1813;52.016;8.714;2023-04-25T12:58:45;-16261.94;;;-139.71;42.99
3598;BME280;1813;52.016;8.714;2023-04-25T13:01:19;-16261.94;;;-139.71;43.23
3598;BME280;1813;52.016;8.714;2023-04-25T13:03:53;-16261.94;;;-139.71;42.84
3598;BME280;1813;52.016;8.714;2023-04-25T13:06:30;-16261.94;;;-139.71;42.37
3598;BME280;1813;52.016;8.714;2023-04-25T13:09:04;-16261.94;;;-139.71;42.59
3598;BME280;1813;52.016;8.714;2023-04-25T13:11:39;-16261.94;;;-139.71;41.98
3598;BME280;1813;52.016;8.714;2023-04-25T13:14:13;-16261.94;;;-139.71;40.93
3598;BME280;1813;52.016;8.714;2023-04-25T13:16:49;-16261.94;;;-139.71;40.92
3598;BME280;1813;52.016;8.714;2023-04-25T13:19:24;-16261.94;;;-139.71;41.25
3598;BME280;1813;52.016;8.714;2023-04-25T13:22:01;-16261.94;;;-139.71;39.88
3598;BME280;1813;52.016;8.714;2023-04-25T13:24:36;-16261.94;;;-139.71;39.99
3598;BME280;1813;52.016;8.714;2023-04-25T13:27:10;-16261.94;;;-139.71;39.21
3598;BME280;1813;52.016;8.714;2023-04-25T13:29:44;-16261.94;;;-139.71;38.43
3598;BME280;1813;52.016;8.714;2023-04-25T13:32:18;-16261.94;;;-139.71;40.13
3598;BME280;1813;52.016;8.714;2023-04-25T13:34:53;-16261.94;;;-139.71;41.66
3598;BME280;1813;52.016;8.714;2023-04-25T13:37:29;-16261.94;;;-139.71;43.59
3598;BME280;1813;52.016;8.714;2023-04-25T13:40:06;-16261.94;;;-139.71;45.98
3598;BME280;1813;52.016;8.714;2023-04-25T13:42:40;-16261.94;;;-139.71;47.22
3598;BME280;1813;52.016;8.714;2023-04-25T13:45:16;-16261.94;;;-139.71;47.88
3598;BME280;1813;52.016;8.714;2023-04-25T13:47:50;-16261.94;;;-139.71;49.41
3598;BME280;1813;52.016;8.714;2023-04-25T13:50:24;-16261.94;;;-139.71;51.38